createdAt,value
2022-08-03T00:01:55.915Z,100265.13
2022-08-03T00:04:33.574Z,100271.47
2022-08-03T00:07:04.757Z,100274.22
2022-08-03T00:09:35.439Z,100275.09
2022-08-03T00:12:06.694Z,100279.09
2022-08-03T00:14:37.437Z,100276.50
2022-08-03T00:17:09.601Z,100265.03
2022-08-03T00:19:40.283Z,100269.00
2022-08-03T00:22:11.058Z,100265.88
2022-08-03T00:24:41.703Z,100265.22
2022-08-03T00:27:12.466Z,100243.09
2022-08-03T00:30:00.060Z,100259.41
2022-08-03T00:32:33.061Z,100251.53
2022-08-03T00:35:08.021Z,100239.75
2022-08-03T00:37:40.641Z,100244.69
2022-08-03T00:40:14.930Z,100234.72
2022-08-03T00:42:54.561Z,100233.88
2022-08-03T00:45:26.933Z,100232.16
2022-08-03T00:48:00.087Z,100235.00
2022-08-03T00:50:33.255Z,100244.19
2022-08-03T00:53:05.988Z,100242.28
2022-08-03T00:55:36.756Z,100263.41
2022-08-03T00:58:08.848Z,100263.41
2022-08-03T01:00:41.237Z,100262.84
2022-08-03T01:03:14.426Z,100265.88
2022-08-03T01:05:55.165Z,100266.53
2022-08-03T01:08:35.492Z,100273.66
2022-08-03T01:11:21.674Z,100265.88
2022-08-03T01:14:18.099Z,100262.44
2022-08-03T01:17:00.374Z,100277.31
2022-08-03T01:19:49.482Z,100268.69
2022-08-03T01:23:00.386Z,100281.53
2022-08-03T01:25:50.672Z,100271.28
2022-08-03T01:28:46.273Z,100269.59
2022-08-03T01:31:28.923Z,100256.19
2022-08-03T01:34:03.244Z,100275.66
2022-08-03T01:36:38.995Z,100280.41
2022-08-03T01:39:12.374Z,100271.69
2022-08-03T01:41:50.774Z,100271.38
2022-08-03T01:44:29.603Z,100256.09
2022-08-03T01:47:04.125Z,100262.16
2022-08-03T01:49:40.283Z,100256.22
2022-08-03T01:52:11.801Z,100257.69
2022-08-03T01:54:48.019Z,100256.59
2022-08-03T01:57:19.287Z,100262.06
2022-08-03T01:59:52.743Z,100263.59
2022-08-03T02:02:33.044Z,100264.66
2022-08-03T02:05:10.787Z,100263.44
2022-08-03T02:07:44.616Z,100263.63
2022-08-03T02:10:17.098Z,100266.38
2022-08-03T02:13:08.693Z,100233.94
2022-08-03T02:15:41.351Z,100262.06
2022-08-03T02:18:14.709Z,100253.28
2022-08-03T02:20:47.186Z,100211.06
2022-08-03T02:23:19.193Z,100251.22
2022-08-03T02:25:53.625Z,100242.00
2022-08-03T02:28:25.194Z,100250.94
2022-08-03T02:30:57.689Z,100244.09
2022-08-03T02:33:33.059Z,100228.72
2022-08-03T02:36:05.532Z,100233.88
2022-08-03T02:38:39.468Z,100230.31
2022-08-03T02:41:16.300Z,100215.88
2022-08-03T02:44:06.084Z,100236.63
2022-08-03T02:46:41.264Z,100221.25
2022-08-03T02:49:40.711Z,100229.44
2022-08-03T02:52:13.181Z,100223.28
2022-08-03T02:54:49.171Z,100226.69
2022-08-03T02:57:21.809Z,100229.91
2022-08-03T02:59:54.341Z,100230.38
2022-08-03T03:02:26.885Z,100224.63
2022-08-03T03:05:54.836Z,100233.63
2022-08-03T03:07:51.962Z,100227.72
2022-08-03T03:10:25.430Z,100232.47
2022-08-03T03:12:58.568Z,100242.16
2022-08-03T03:15:32.007Z,100243.44
2022-08-03T03:18:03.726Z,100246.84
2022-08-03T03:20:37.208Z,100245.63
2022-08-03T03:23:08.769Z,100239.63
2022-08-03T03:25:40.448Z,100248.81
2022-08-03T03:28:13.247Z,100256.06
2022-08-03T03:30:43.937Z,100262.19
2022-08-03T03:33:15.328Z,100263.22
2022-08-03T03:35:49.745Z,100264.03
2022-08-03T03:38:20.469Z,100249.78
2022-08-03T03:40:51.359Z,100208.41
2022-08-03T03:43:22.361Z,100252.03
2022-08-03T03:45:54.495Z,100240.84
2022-08-03T03:48:25.237Z,100244.28
2022-08-03T03:50:58.167Z,100242.38
2022-08-03T03:53:29.181Z,100249.09
2022-08-03T03:56:02.602Z,100242.59
2022-08-03T03:58:35.423Z,100240.69
2022-08-03T04:01:06.161Z,100243.97
2022-08-03T04:03:38.224Z,100238.44
2022-08-03T04:06:27.276Z,100224.03
2022-08-03T04:09:14.640Z,100239.25
2022-08-03T04:11:50.131Z,100244.47
2022-08-03T04:14:23.492Z,100239.78
2022-08-03T04:16:59.229Z,100248.78
2022-08-03T04:19:33.682Z,100251.66
2022-08-03T04:22:10.733Z,100250.34
2022-08-03T04:24:45.974Z,100264.41
2022-08-03T04:27:19.475Z,100260.59
2022-08-03T04:29:52.138Z,100264.47
2022-08-03T04:32:27.090Z,100258.03
2022-08-03T04:34:57.945Z,100256.22
2022-08-03T04:37:36.145Z,100256.47
2022-08-03T04:40:11.440Z,100254.16
2022-08-03T04:42:45.819Z,100240.63
2022-08-03T04:45:17.751Z,100230.91
2022-08-03T04:47:48.739Z,100227.03
2022-08-03T04:50:21.712Z,100237.03
2022-08-03T04:52:54.253Z,100229.22
2022-08-03T04:55:31.107Z,100229.00
2022-08-03T04:58:02.387Z,100232.09
2022-08-03T05:00:33.373Z,100233.19
2022-08-03T05:03:04.078Z,100223.41
2022-08-03T05:05:50.891Z,100228.09
2022-08-03T05:08:27.891Z,100227.28
2022-08-03T05:10:59.524Z,100224.50
2022-08-03T05:13:30.314Z,100225.56
2022-08-03T05:16:01.015Z,100221.84
2022-08-03T05:18:31.749Z,100229.22
2022-08-03T05:21:02.347Z,100232.28
2022-08-03T05:23:34.591Z,100226.63
2022-08-03T05:26:07.830Z,100229.69
2022-08-03T05:28:38.466Z,100219.38
2022-08-03T05:31:09.079Z,100219.78
2022-08-03T05:33:40.223Z,100218.69
2022-08-03T05:36:11.052Z,100216.00
2022-08-03T05:38:43.758Z,100207.03
2022-08-03T05:41:21.290Z,100196.53
2022-08-03T05:43:55.194Z,100187.56
2022-08-03T05:46:26.425Z,100193.78
2022-08-03T05:48:57.099Z,100184.91
2022-08-03T05:51:28.564Z,100196.63
2022-08-03T05:54:00.827Z,100208.50
2022-08-03T05:56:31.668Z,100194.66
2022-08-03T05:59:22.399Z,100199.19
2022-08-03T06:01:53.022Z,100203.56
2022-08-03T06:04:23.778Z,100217.00
2022-08-03T06:06:54.467Z,100220.00
2022-08-03T06:09:31.854Z,100202.47
2022-08-03T06:12:18.110Z,100229.28
2022-08-03T06:14:49.447Z,100236.44
2022-08-03T06:17:20.738Z,100227.28
2022-08-03T06:19:51.894Z,100232.03
2022-08-03T06:22:23.144Z,100238.00
2022-08-03T06:25:04.947Z,100231.22
2022-08-03T06:27:41.217Z,100240.50
2022-08-03T06:30:16.986Z,100241.44
2022-08-03T06:32:51.817Z,100226.31
2022-08-03T06:35:24.070Z,100236.44
2022-08-03T06:37:55.721Z,100243.84
2022-08-03T06:40:32.383Z,100253.19
2022-08-03T06:43:06.113Z,100229.66
2022-08-03T06:45:40.562Z,100241.81
2022-08-03T06:48:12.951Z,100182.63
2022-08-03T06:50:45.601Z,100229.78
2022-08-03T06:53:19.751Z,100233.41
2022-08-03T06:55:54.861Z,100235.84
2022-08-03T06:58:25.888Z,100233.69
2022-08-03T07:00:56.835Z,100226.88
2022-08-03T07:03:27.824Z,100215.84
2022-08-03T07:05:58.914Z,100226.84
2022-08-03T07:08:33.800Z,100222.97
2022-08-03T07:11:07.027Z,100219.63
2022-08-03T07:13:37.591Z,100210.13
2022-08-03T07:16:08.732Z,100223.78
2022-08-03T07:18:42.180Z,100215.97
2022-08-03T07:21:13.922Z,100209.72
2022-08-03T07:23:45.116Z,100212.13
2022-08-03T07:26:17.967Z,100204.34
2022-08-03T07:28:48.922Z,100206.63
2022-08-03T07:31:20.184Z,100197.56
2022-08-03T07:33:51.331Z,100201.16
2022-08-03T07:36:22.540Z,100214.72
2022-08-03T07:38:53.731Z,100210.59
2022-08-03T07:41:26.669Z,100210.97
2022-08-03T07:43:58.079Z,100210.97
2022-08-03T07:46:29.422Z,100209.78
2022-08-03T07:49:00.782Z,100210.47
2022-08-03T07:51:32.621Z,100195.28
2022-08-03T07:54:03.836Z,100194.31
2022-08-03T07:56:36.714Z,100211.56
2022-08-03T07:59:07.755Z,100221.91
2022-08-03T08:01:39.074Z,100213.09
2022-08-03T08:04:10.516Z,100207.38
2022-08-03T08:06:41.861Z,100199.91
2022-08-03T08:09:13.132Z,100201.03
2022-08-03T08:11:46.348Z,100209.44
2022-08-03T08:14:17.011Z,100205.53
2022-08-03T08:16:48.799Z,100203.44
2022-08-03T08:19:19.997Z,100199.88
2022-08-03T08:22:02.408Z,100198.06
2022-08-03T08:24:34.955Z,100210.63
2022-08-03T08:27:09.662Z,100212.66
2022-08-03T08:29:56.372Z,100185.34
2022-08-03T08:32:29.564Z,100204.44
2022-08-03T08:35:00.168Z,100207.72
2022-08-03T08:37:30.799Z,100207.28
2022-08-03T08:40:01.475Z,100203.25
2022-08-03T08:42:34.790Z,100207.31
2022-08-03T08:45:06.260Z,100213.38
2022-08-03T08:47:50.963Z,100204.50
2022-08-03T08:50:27.602Z,100215.53
2022-08-03T08:53:03.131Z,100217.44
2022-08-03T08:55:59.496Z,100215.06
2022-08-03T08:58:28.885Z,100231.44
2022-08-03T09:00:59.942Z,100224.69
2022-08-03T09:03:31.062Z,100240.75
2022-08-03T09:06:05.153Z,100234.59
2022-08-03T09:08:36.552Z,100230.47
2022-08-03T09:11:08.356Z,100236.22
2022-08-03T09:13:44.613Z,100238.56
2022-08-03T09:16:19.580Z,100253.00
2022-08-03T09:18:52.987Z,100256.50
2022-08-03T09:21:33.587Z,100251.44
2022-08-03T09:24:10.257Z,100271.81
2022-08-03T09:26:53.666Z,100283.19
2022-08-03T09:29:26.380Z,100280.59
2022-08-03T09:32:04.530Z,100248.09
2022-08-03T09:34:35.370Z,100288.19
2022-08-03T09:37:15.888Z,100285.78
2022-08-03T09:39:46.937Z,100280.47
2022-08-03T09:42:18.989Z,100269.56
2022-08-03T09:44:56.266Z,100275.84
2022-08-03T09:47:32.472Z,100284.50
2022-08-03T09:50:04.613Z,100286.34
2022-08-03T09:52:39.198Z,100298.78
2022-08-03T09:56:33.567Z,100306.78
2022-08-03T09:58:15.192Z,100290.84
2022-08-03T10:01:04.491Z,100299.78
2022-08-03T10:04:02.944Z,100300.34
2022-08-03T10:06:29.066Z,100304.19
2022-08-03T10:09:10.193Z,100304.06
2022-08-03T10:11:42.411Z,100293.38
2022-08-03T10:14:19.787Z,100277.78
2022-08-03T10:16:52.726Z,100272.78
2022-08-03T10:19:23.351Z,100297.22
2022-08-03T10:21:58.730Z,100297.22
2022-08-03T10:24:32.293Z,100297.22
2022-08-03T10:27:05.757Z,100305.06
2022-08-03T10:29:41.174Z,100302.63
2022-08-03T10:32:18.678Z,100301.22
2022-08-03T10:35:00.373Z,100301.44
2022-08-03T10:37:40.089Z,100308.59
2022-08-03T10:43:24.963Z,100319.28
2022-08-03T10:45:55.802Z,100311.50
2022-08-03T10:48:29.125Z,100306.28
2022-08-03T10:50:59.864Z,100313.31
2022-08-03T10:53:41.261Z,100313.22
2022-08-03T10:57:12.402Z,100316.72
2022-08-03T11:00:05.220Z,100316.00
2022-08-03T11:03:12.897Z,100318.00
2022-08-03T11:05:46.585Z,100311.25
2022-08-03T11:08:31.090Z,100255.78
2022-08-03T11:11:04.189Z,100308.56
2022-08-03T11:13:35.195Z,100311.00
2022-08-03T11:16:24.227Z,100310.00
2022-08-03T11:19:02.760Z,100312.00
2022-08-03T11:21:58.633Z,100319.19
2022-08-03T11:25:05.566Z,100325.53
2022-08-03T11:27:36.780Z,100281.06
2022-08-03T11:30:10.768Z,100315.53
2022-08-03T11:33:03.352Z,100320.53
2022-08-03T11:35:36.555Z,100330.31
2022-08-03T11:38:14.130Z,100323.31
2022-08-03T11:40:47.458Z,100329.41
2022-08-03T11:43:47.749Z,100335.38
2022-08-03T11:46:29.640Z,100331.09
2022-08-03T11:49:10.913Z,100300.22
2022-08-03T11:51:42.222Z,100303.50
2022-08-03T11:54:14.619Z,100308.06
2022-08-03T11:56:49.429Z,100315.78
2022-08-03T11:59:22.326Z,100308.91
2022-08-03T12:01:53.662Z,100315.53
2022-08-03T12:04:24.468Z,100317.22
2022-08-03T12:07:05.132Z,100315.53
2022-08-03T12:09:40.285Z,100310.25
2022-08-03T12:12:11.208Z,100314.66
2022-08-03T12:14:49.993Z,100306.81
2022-08-03T12:17:22.534Z,100310.34
2022-08-03T12:19:53.453Z,100312.09
2022-08-03T12:22:35.374Z,100314.06
2022-08-03T12:25:08.163Z,100305.34
2022-08-03T12:27:39.372Z,100310.34
2022-08-03T12:30:11.750Z,100316.53
2022-08-03T12:32:42.494Z,100321.91
2022-08-03T12:35:13.724Z,100302.19
2022-08-03T12:37:51.712Z,100319.22
2022-08-03T12:40:30.158Z,100315.63
2022-08-03T12:43:02.480Z,100311.25
2022-08-03T12:45:33.779Z,100310.34
2022-08-03T12:48:05.172Z,100308.00
2022-08-03T12:50:36.889Z,100312.34
2022-08-03T12:53:11.092Z,100308.50
2022-08-03T12:56:04.443Z,100305.97
2022-08-03T12:58:37.693Z,100313.94
2022-08-03T13:01:10.630Z,100308.78
2022-08-03T13:03:50.226Z,100304.84
2022-08-03T13:06:25.093Z,100307.47
2022-08-03T13:09:06.359Z,100318.03
2022-08-03T13:11:57.402Z,100327.84
2022-08-03T13:14:29.434Z,100325.16
2022-08-03T13:17:00.335Z,100330.31
2022-08-03T13:19:31.057Z,100323.31
2022-08-03T13:22:03.920Z,100337.44
2022-08-03T13:24:36.413Z,100341.00
2022-08-03T13:28:02.117Z,100337.63
2022-08-03T13:30:00.006Z,100339.41
2022-08-03T13:32:31.224Z,100342.84
2022-08-03T13:35:03.339Z,100343.66
2022-08-03T13:37:34.566Z,100345.34
2022-08-03T13:40:06.804Z,100342.72
2022-08-03T13:42:39.722Z,100351.44
2022-08-03T13:45:12.188Z,100352.22
2022-08-03T13:47:42.842Z,100346.16
2022-08-03T13:50:13.497Z,100338.94
2022-08-03T13:52:59.130Z,100339.94
2022-08-03T13:55:29.888Z,100333.88
2022-08-03T13:58:07.246Z,100322.53
2022-08-03T14:00:38.597Z,100321.97
2022-08-03T14:03:14.267Z,100333.34
2022-08-03T14:05:46.266Z,100332.53
2022-08-03T14:08:16.964Z,100317.44
2022-08-03T14:10:48.336Z,100319.13
2022-08-03T14:13:20.626Z,100310.50
2022-08-03T14:15:51.544Z,100320.13
2022-08-03T14:18:28.640Z,100327.81
2022-08-03T14:21:06.978Z,100319.13
2022-08-03T14:23:39.891Z,100328.72
2022-08-03T14:26:11.163Z,100340.06
2022-08-03T14:28:43.881Z,100323.38
2022-08-03T14:32:09.244Z,100321.72
2022-08-03T14:34:05.166Z,100332.28
2022-08-03T14:36:35.855Z,100334.13
2022-08-03T14:39:06.907Z,100323.72
2022-08-03T14:41:37.520Z,100321.88
2022-08-03T14:44:09.907Z,100318.44
2022-08-03T14:46:40.519Z,100311.50
2022-08-03T14:50:38.186Z,100307.22
2022-08-03T14:52:02.353Z,100313.38
2022-08-03T14:54:33.289Z,100323.84
2022-08-03T14:57:03.956Z,100313.28
2022-08-03T14:59:55.846Z,100314.06
2022-08-03T15:02:27.317Z,100301.13
2022-08-03T15:04:58.117Z,100299.44
2022-08-03T15:07:28.714Z,100298.50
2022-08-03T15:10:00.310Z,100295.03
2022-08-03T15:12:33.123Z,100291.50
2022-08-03T15:15:05.449Z,100285.28
2022-08-03T15:17:36.015Z,100283.59
2022-08-03T15:20:23.432Z,100271.72
2022-08-03T15:22:57.956Z,100279.22
2022-08-03T15:26:02.192Z,100269.72
2022-08-03T15:28:19.511Z,100264.56
2022-08-03T15:30:51.799Z,100256.78
2022-08-03T15:33:22.525Z,100245.41
2022-08-03T15:35:53.864Z,100240.28
2022-08-03T15:38:25.883Z,100211.13
2022-08-03T15:40:57.298Z,100234.28
2022-08-03T15:43:28.070Z,100226.56
2022-08-03T15:48:51.841Z,100242.25
2022-08-03T15:51:22.444Z,100235.28
2022-08-03T15:53:53.007Z,100240.56
2022-08-03T15:56:23.690Z,100237.13
2022-08-03T15:59:03.759Z,100247.78
2022-08-03T16:01:45.599Z,100254.91
2022-08-03T16:04:16.332Z,100258.34
2022-08-03T16:06:47.081Z,100268.88
2022-08-03T16:09:24.358Z,100268.88
2022-08-03T16:12:15.873Z,100264.50
2022-08-03T16:14:55.228Z,100262.91
2022-08-03T16:17:27.552Z,100272.56
2022-08-03T16:19:58.206Z,100262.16
2022-08-03T16:22:28.980Z,100257.25
2022-08-03T16:25:00.797Z,100252.25
2022-08-03T16:27:37.320Z,100251.34
2022-08-03T16:30:22.206Z,100243.63
2022-08-03T16:32:54.596Z,100236.78
2022-08-03T16:35:25.649Z,100251.97
2022-08-03T16:37:56.981Z,100250.19
2022-08-03T16:40:28.179Z,100235.81
2022-08-03T16:42:58.834Z,100254.56
2022-08-03T16:45:29.518Z,100243.88
2022-08-03T16:48:05.376Z,100237.41
2022-08-03T16:50:37.736Z,100240.72
2022-08-03T16:53:09.739Z,100258.84
2022-08-03T16:55:49.016Z,100249.44
2022-08-03T16:58:34.459Z,100251.81
2022-08-03T17:01:24.314Z,100250.88
2022-08-03T17:04:03.258Z,100241.31
2022-08-03T17:06:36.942Z,100233.59
2022-08-03T17:09:09.875Z,100207.75
2022-08-03T17:11:47.238Z,100228.56
2022-08-03T17:14:21.993Z,100223.16
2022-08-03T17:16:54.741Z,100211.28
2022-08-03T17:19:28.152Z,100175.63
2022-08-03T17:22:04.686Z,100245.31
2022-08-03T17:24:40.990Z,100227.47
2022-08-03T17:27:23.104Z,100188.13
2022-08-03T17:30:09.635Z,100256.94
2022-08-03T17:32:42.854Z,100260.56
2022-08-03T17:35:24.948Z,100263.31
2022-08-03T17:38:11.859Z,100251.81
2022-08-03T17:40:52.175Z,100252.72
2022-08-03T17:44:14.170Z,100239.22
2022-08-03T17:46:14.119Z,100241.50
2022-08-03T17:48:50.544Z,100243.03
2022-08-03T17:51:30.297Z,100245.84
2022-08-03T17:54:18.057Z,100253.59
2022-08-03T17:56:57.897Z,100248.44
2022-08-03T17:59:51.497Z,100244.16
2022-08-03T18:02:57.135Z,100239.84
2022-08-03T18:06:11.634Z,100252.38
2022-08-03T18:08:29.182Z,100240.22
2022-08-03T18:11:03.326Z,100255.22
2022-08-03T18:13:57.617Z,100216.78
2022-08-03T18:16:34.718Z,100249.28
2022-08-03T18:19:13.570Z,100238.84
2022-08-03T18:22:02.766Z,100221.69
2022-08-03T18:24:37.150Z,100249.16
2022-08-03T18:27:08.499Z,100254.53
2022-08-03T18:29:40.144Z,100259.81
2022-08-03T18:32:16.712Z,100254.66
2022-08-03T18:34:53.447Z,100251.22
2022-08-03T18:37:27.368Z,100261.78
2022-08-03T18:40:02.127Z,100261.78
2022-08-03T18:42:33.804Z,100263.47
2022-08-03T18:45:14.926Z,100263.47
2022-08-03T18:48:05.947Z,100260.91
2022-08-03T18:50:41.227Z,100260.16
2022-08-03T18:54:02.657Z,100253.31
2022-08-03T18:56:26.183Z,100253.78
2022-08-03T18:59:02.918Z,100287.47
2022-08-03T19:02:00.361Z,100279.41
2022-08-03T19:04:36.581Z,100286.41
2022-08-03T19:07:09.095Z,100296.97
2022-08-03T19:09:52.604Z,100291.69
2022-08-03T19:12:32.397Z,100286.75
2022-08-03T19:15:10.551Z,100298.91
2022-08-03T19:17:50.248Z,100289.22
2022-08-03T19:20:26.243Z,100294.63
2022-08-03T19:22:58.474Z,100295.50
2022-08-03T19:25:34.559Z,100295.69
2022-08-03T19:28:08.186Z,100304.38
2022-08-03T19:30:40.693Z,100314.81
2022-08-03T19:33:19.235Z,100308.63
2022-08-03T19:35:57.207Z,100318.03
2022-08-03T19:38:29.843Z,100320.75
2022-08-03T19:41:03.947Z,100321.81
2022-08-03T19:43:52.875Z,100329.44
2022-08-03T19:46:31.002Z,100263.22
2022-08-03T19:49:10.315Z,100333.72
2022-08-03T19:52:01.163Z,100330.28
2022-08-03T19:54:49.346Z,100332.00
2022-08-03T19:57:28.002Z,100335.34
2022-08-03T20:00:03.737Z,100304.22
2022-08-03T20:02:35.857Z,100336.81
2022-08-03T20:05:15.112Z,100335.91
2022-08-03T20:07:48.290Z,100342.19
2022-08-03T20:10:20.209Z,100314.47
2022-08-03T20:12:51.960Z,100322.84
2022-08-03T20:15:31.564Z,100347.84
2022-08-03T20:18:03.033Z,100310.34
2022-08-03T20:20:36.366Z,100337.47
2022-08-03T20:23:09.503Z,100333.44
2022-08-03T20:25:48.450Z,100326.44
2022-08-03T20:28:28.881Z,100336.25
2022-08-03T20:31:02.328Z,100335.75
2022-08-03T20:33:46.315Z,100324.06
2022-08-03T20:36:20.292Z,100333.31
2022-08-03T20:38:51.976Z,100332.09
2022-08-03T20:41:22.826Z,100334.78
2022-08-03T20:43:53.523Z,100332.19
2022-08-03T20:46:31.292Z,100339.03
2022-08-03T20:49:08.139Z,100335.97
2022-08-03T20:51:49.585Z,100347.22
2022-08-03T20:54:30.640Z,100349.97
2022-08-03T20:57:03.863Z,100344.16
2022-08-03T20:59:47.588Z,100352.16
2022-08-03T21:02:29.851Z,100346.44
2022-08-03T21:05:02.931Z,100345.06
2022-08-03T21:07:45.966Z,100346.13
2022-08-03T21:10:38.211Z,100343.63
2022-08-03T21:13:17.711Z,100346.38
2022-08-03T21:16:06.774Z,100338.59
2022-08-03T21:18:48.031Z,100359.06
2022-08-03T21:21:23.507Z,100356.44
2022-08-03T21:23:55.101Z,100351.16
2022-08-03T21:26:26.927Z,100357.50
2022-08-03T21:28:58.977Z,100353.25
2022-08-03T21:31:29.840Z,100290.38
2022-08-03T21:34:04.339Z,100319.59
2022-08-03T21:36:37.413Z,100341.72
2022-08-03T21:39:09.960Z,100326.25
2022-08-03T21:41:42.084Z,100355.38
2022-08-03T21:44:12.785Z,100344.81
2022-08-03T21:46:45.040Z,100353.66
2022-08-03T21:50:04.711Z,100349.16
2022-08-03T21:52:09.410Z,100350.72
2022-08-03T21:54:42.956Z,100352.44
2022-08-03T21:57:23.371Z,100346.28
2022-08-03T21:59:57.754Z,100356.06
2022-08-03T22:02:32.012Z,100351.81
2022-08-03T22:05:05.286Z,100356.38
2022-08-03T22:07:37.321Z,100361.84
2022-08-03T22:10:09.880Z,100362.84
2022-08-03T22:12:41.167Z,100362.78
2022-08-03T22:15:13.952Z,100372.13
2022-08-03T22:17:54.748Z,100377.22
2022-08-03T22:20:29.602Z,100362.66
2022-08-03T22:23:03.355Z,100379.44
2022-08-03T22:25:36.424Z,100365.44
2022-08-03T22:28:10.974Z,100357.44
2022-08-03T22:30:43.384Z,100378.66
2022-08-03T22:33:14.939Z,100376.66
2022-08-03T22:35:49.035Z,100372.97
2022-08-03T22:38:20.878Z,100344.44
2022-08-03T22:40:52.253Z,100340.66
2022-08-03T22:43:25.854Z,100357.16
2022-08-03T22:46:11.253Z,100316.41
2022-08-03T22:48:43.355Z,100348.34
2022-08-03T22:51:17.096Z,100341.88
2022-08-03T22:53:48.866Z,100340.81
2022-08-03T22:56:19.452Z,100340.66
2022-08-03T22:58:50.113Z,100344.09
2022-08-03T23:01:25.760Z,100340.50
2022-08-03T23:04:02.412Z,100340.50
2022-08-03T23:06:38.082Z,100332.56
2022-08-03T23:09:11.083Z,100338.66
2022-08-03T23:11:45.399Z,100324.00
2022-08-03T23:14:18.094Z,100341.50
2022-08-03T23:16:50.195Z,100285.22
2022-08-03T23:19:25.436Z,100340.56
2022-08-03T23:22:03.599Z,100341.78
2022-08-03T23:24:38.825Z,100346.34
2022-08-03T23:27:11.058Z,100352.84
2022-08-03T23:29:46.081Z,100355.78
2022-08-03T23:32:17.084Z,100355.00
2022-08-03T23:35:06.613Z,100356.97
2022-08-03T23:38:04.471Z,100363.97
2022-08-03T23:40:32.163Z,100362.25
2022-08-03T23:43:05.478Z,100359.56
2022-08-03T23:45:39.292Z,100363.84
2022-08-03T23:48:10.089Z,100361.72
2022-08-03T23:50:48.525Z,100359.59
2022-08-03T23:53:28.824Z,100354.78
2022-08-03T23:56:21.583Z,100353.81
2022-08-03T23:59:07.572Z,100346.97
